createdAt,value
2023-04-24T00:00:01.139Z,83.4
2023-04-24T00:10:01.240Z,83.0
2023-04-24T00:15:01.220Z,84.1
2023-04-24T00:20:01.166Z,83.4
2023-04-24T00:25:01.230Z,82.3
2023-04-24T00:30:01.196Z,82.1
2023-04-24T00:35:01.247Z,82.8
2023-04-24T00:40:01.167Z,81.7
2023-04-24T00:45:01.302Z,81.5
2023-04-24T00:50:02.249Z,81.9
2023-04-24T00:55:01.242Z,82.7
2023-04-24T01:00:01.179Z,83.7
2023-04-24T01:05:01.252Z,86.2
2023-04-24T01:10:01.224Z,89.7
2023-04-24T01:15:02.206Z,92.2
2023-04-24T01:20:01.175Z,94.8
2023-04-24T01:30:01.255Z,101.9
2023-04-24T01:35:01.229Z,107.5
2023-04-24T01:40:01.156Z,112.4
2023-04-24T01:50:01.280Z,118.8
2023-04-24T01:55:01.172Z,121.4
2023-04-24T02:00:01.112Z,119.9
2023-04-24T02:05:01.162Z,124.1
2023-04-24T02:10:01.117Z,121.2
2023-04-24T02:15:01.152Z,115.5
2023-04-24T02:20:01.092Z,111.4
2023-04-24T02:25:01.197Z,106.3
2023-04-24T02:30:01.098Z,95.4
2023-04-24T02:35:01.214Z,90.9
2023-04-24T02:40:02.115Z,88.0
2023-04-24T02:45:02.208Z,86.5
2023-04-24T02:50:01.220Z,85.6
2023-04-24T03:00:01.176Z,85.8
2023-04-24T03:05:01.205Z,85.9
2023-04-24T03:10:01.159Z,84.2
2023-04-24T03:15:01.245Z,83.4
2023-04-24T03:20:06.193Z,82.8
2023-04-24T03:25:01.336Z,81.8
2023-04-24T03:30:01.258Z,80.2
2023-04-24T03:35:01.311Z,81.0
2023-04-24T03:40:01.253Z,81.4
2023-04-24T03:45:01.335Z,81.5
2023-04-24T03:50:01.347Z,81.4
2023-04-24T04:00:01.302Z,82.6
2023-04-24T04:10:01.263Z,82.5
2023-04-24T04:15:01.291Z,82.8
2023-04-24T04:20:01.160Z,82.6
2023-04-24T04:25:01.223Z,82.0
2023-04-24T04:30:01.182Z,80.6
2023-04-24T04:35:01.219Z,79.7
2023-04-24T04:40:01.164Z,78.4
2023-04-24T04:45:01.593Z,81.4
2023-04-24T04:50:01.212Z,80.1
2023-04-24T05:00:01.616Z,79.8
2023-04-24T05:05:01.330Z,79.4
2023-04-24T05:10:01.571Z,78.5
2023-04-24T05:15:01.340Z,74.6
2023-04-24T05:20:01.192Z,75.5
2023-04-24T05:25:01.332Z,76.4
2023-04-24T05:30:01.211Z,79.3
2023-04-24T05:35:01.784Z,79.8
2023-04-24T05:40:01.147Z,81.0
2023-04-24T05:45:01.238Z,82.2
2023-04-24T05:50:01.179Z,83.7
2023-04-24T05:55:01.564Z,82.7
2023-04-24T06:00:01.158Z,84.5
2023-04-24T06:05:01.432Z,85.4
2023-04-24T06:10:01.532Z,85.5
2023-04-24T06:15:01.694Z,85.4
2023-04-24T06:20:01.163Z,85.1
2023-04-24T06:25:01.632Z,84.9
2023-04-24T06:30:01.222Z,84.1
2023-04-24T06:40:01.207Z,83.8
2023-04-24T06:45:01.152Z,83.6
2023-04-24T06:55:01.171Z,84.4
2023-04-24T07:00:01.073Z,84.3
2023-04-24T07:05:01.137Z,84.6
2023-04-24T07:20:01.184Z,84.6
2023-04-24T07:25:01.157Z,85.3
2023-04-24T07:30:01.376Z,85.0
2023-04-24T07:40:01.308Z,85.9
2023-04-24T07:45:01.229Z,86.4
2023-04-24T07:50:01.236Z,86.6
2023-04-24T07:55:01.285Z,87.6
2023-04-24T08:05:01.233Z,87.0
2023-04-24T08:10:06.121Z,89.5
2023-04-24T08:15:01.213Z,89.2
2023-04-24T08:20:01.091Z,87.8
2023-04-24T08:30:01.172Z,85.2
2023-04-24T08:35:01.145Z,84.0
2023-04-24T08:40:01.076Z,79.1
2023-04-24T08:45:01.167Z,77.8
2023-04-24T08:50:01.117Z,78.0
2023-04-24T08:55:01.279Z,80.1
2023-04-24T09:00:01.089Z,80.7
2023-04-24T09:05:01.203Z,80.1
2023-04-24T09:10:01.092Z,79.7
2023-04-24T09:15:01.149Z,78.1
2023-04-24T09:25:01.236Z,76.8
2023-04-24T09:30:01.223Z,76.5
2023-04-24T09:35:01.178Z,76.8
2023-04-24T09:40:01.119Z,76.2
2023-04-24T09:55:00.974Z,82.2
2023-04-24T10:00:00.766Z,84.1
2023-04-24T10:05:01.409Z,86.7
2023-04-24T10:10:00.782Z,86.6
2023-04-24T10:15:00.873Z,86.0
2023-04-24T10:20:00.868Z,85.5
2023-04-24T10:25:00.848Z,85.6
2023-04-24T10:30:00.785Z,84.5
2023-04-24T10:35:01.843Z,84.1
2023-04-24T10:40:01.103Z,84.3
2023-04-24T10:45:00.878Z,85.8
2023-04-24T10:50:01.127Z,88.4
2023-04-24T10:55:00.986Z,88.7
2023-04-24T11:00:00.835Z,88.9
2023-04-24T11:15:01.960Z,84.4
2023-04-24T11:20:06.827Z,86.1
2023-04-24T11:45:01.465Z,83.4
2023-04-24T11:55:01.523Z,82.6
2023-04-24T12:15:01.800Z,83.4
2023-04-24T12:20:01.312Z,82.9
2023-04-24T12:25:01.461Z,82.5
2023-04-24T12:30:01.285Z,81.4
2023-04-24T12:35:01.385Z,80.6
2023-04-24T12:40:01.321Z,80.1
2023-04-24T12:45:01.342Z,80.0
2023-04-24T12:50:01.290Z,78.8
2023-04-24T12:55:01.481Z,78.7
2023-04-24T13:00:01.361Z,79.7
2023-04-24T13:05:01.406Z,80.0
2023-04-24T13:10:01.324Z,80.2
2023-04-24T13:15:01.447Z,81.2
2023-04-24T13:20:01.333Z,81.9
2023-04-24T13:25:01.475Z,82.2
2023-04-24T13:30:01.361Z,83.1
2023-04-24T13:35:01.551Z,82.6
2023-04-24T13:40:01.411Z,82.2
2023-04-24T13:45:03.988Z,82.1
2023-04-24T13:50:01.439Z,80.7
2023-04-24T13:55:01.484Z,79.6
2023-04-24T14:00:01.315Z,79.5
2023-04-24T14:05:01.524Z,79.6
2023-04-24T14:10:01.328Z,79.2
2023-04-24T14:15:01.434Z,83.3
2023-04-24T14:20:01.786Z,82.7
2023-04-24T14:25:01.359Z,82.4
2023-04-24T14:30:01.283Z,83.3
2023-04-24T14:35:01.365Z,82.7
2023-04-24T14:45:01.316Z,80.0
2023-04-24T14:50:01.309Z,82.1
2023-04-24T14:55:01.456Z,89.1
2023-04-24T15:00:01.278Z,97.2
2023-04-24T15:05:01.601Z,97.7
2023-04-24T15:10:01.245Z,97.0
2023-04-24T15:15:01.379Z,97.5
2023-04-24T15:20:01.359Z,89.2
2023-04-24T15:25:01.309Z,83.5
2023-04-24T15:30:01.208Z,83.9
2023-04-24T15:35:08.278Z,88.4
2023-04-24T15:40:01.208Z,89.8
2023-04-24T15:45:01.277Z,97.2
2023-04-24T15:50:01.514Z,95.0
2023-04-24T15:55:01.323Z,94.2
2023-04-24T16:00:06.197Z,88.9
2023-04-24T16:05:01.417Z,83.6
2023-04-24T16:10:01.252Z,81.2
2023-04-24T16:15:01.343Z,89.2
2023-04-24T16:20:01.628Z,97.3
2023-04-24T16:25:01.303Z,100.8
2023-04-24T16:30:01.245Z,103.7
2023-04-24T16:35:01.278Z,105.1
2023-04-24T16:40:01.220Z,105.8
2023-04-24T16:45:01.307Z,120.5
2023-04-24T16:50:01.212Z,136.5
2023-04-24T16:55:01.306Z,138.8
2023-04-24T17:00:01.170Z,140.6
2023-04-24T17:05:01.294Z,141.8
2023-04-24T17:10:01.184Z,143.0
2023-04-24T17:15:01.310Z,131.0
2023-04-24T17:20:05.945Z,130.4
2023-04-24T17:25:01.250Z,125.6
2023-04-24T17:30:01.154Z,120.0
2023-04-24T17:35:01.370Z,100.9
2023-04-24T17:40:01.238Z,98.6
2023-04-24T17:45:01.318Z,98.3
2023-04-24T17:50:01.177Z,97.2
2023-04-24T17:55:01.276Z,95.7
2023-04-24T18:00:01.189Z,94.9
2023-04-24T18:05:01.449Z,92.6
2023-04-24T18:10:01.180Z,93.9
2023-04-24T18:20:02.803Z,101.7
2023-04-24T18:30:01.220Z,103.9
2023-04-24T18:35:01.345Z,110.6
2023-04-24T18:45:01.213Z,111.3
2023-04-24T18:50:01.157Z,113.4
2023-04-24T18:55:01.250Z,107.9
2023-04-24T19:00:02.367Z,104.2
2023-04-24T19:05:01.277Z,98.0
2023-04-24T19:10:01.202Z,95.1
2023-04-24T19:20:01.716Z,93.3
2023-04-24T19:25:01.223Z,93.4
2023-04-24T19:30:01.087Z,94.5
2023-04-24T19:35:01.216Z,98.1
2023-04-24T19:40:01.126Z,100.1
2023-04-24T19:45:01.157Z,98.8
2023-04-24T19:50:01.091Z,99.6
2023-04-24T19:55:01.226Z,99.7
2023-04-24T20:00:01.117Z,98.0
2023-04-24T20:05:01.329Z,97.9
2023-04-24T20:15:01.195Z,98.8
2023-04-24T20:20:01.173Z,97.3
2023-04-24T20:25:01.264Z,96.6
2023-04-24T20:30:01.145Z,94.6
2023-04-24T20:35:01.242Z,93.7
2023-04-24T20:40:01.522Z,94.1
2023-04-24T20:45:01.837Z,96.2
2023-04-24T20:55:02.350Z,96.1
2023-04-24T21:00:01.168Z,97.1
2023-04-24T21:05:06.272Z,97.2
2023-04-24T21:10:01.451Z,96.9
2023-04-24T21:15:01.199Z,100.4
2023-04-24T21:20:01.170Z,105.8
2023-04-24T21:25:01.274Z,106.0
2023-04-24T21:30:01.135Z,107.5
2023-04-24T21:35:02.816Z,108.8
2023-04-24T21:40:01.191Z,105.9
2023-04-24T21:50:01.269Z,104.5
2023-04-24T21:55:01.579Z,102.9
2023-04-24T22:00:01.166Z,99.9
2023-04-24T22:05:01.280Z,98.6
2023-04-24T22:10:01.160Z,96.5
2023-04-24T22:20:01.314Z,91.6
2023-04-24T22:25:01.608Z,93.5
2023-04-24T22:30:01.136Z,95.4
2023-04-24T22:35:01.278Z,101.4
2023-04-24T22:45:01.303Z,123.3
2023-04-24T22:50:01.143Z,141.6
2023-04-24T22:55:01.232Z,156.0
2023-04-24T23:00:01.146Z,167.3
2023-04-24T23:05:01.222Z,159.4
2023-04-24T23:10:01.163Z,159.2
2023-04-24T23:15:01.272Z,158.0
2023-04-24T23:20:01.175Z,142.1
2023-04-24T23:25:01.305Z,144.3
2023-04-24T23:35:01.244Z,149.7
2023-04-24T23:40:01.154Z,125.7
2023-04-24T23:45:01.299Z,109.0
2023-04-24T23:50:01.180Z,103.8
2023-04-24T23:55:01.272Z,96.2
